Time;durP1;ratioP1;P1;durP2;ratioP2;P2;SDS_P1;SDS_P2;PMS_P1;PMS_P2;Temp;Humidity;BMP_temperature;BMP_pressure;BME280_temperature;BME280_humidity;BME280_pressure;Samples;Min_cycle;Max_cycle;Signal;HPM_P1;HPM_P2
2022/05/14 00:00:25;;;;;;;3.00;2.10;;;23.20;53.10;;;;;;4995786;28;20390;-65
2022/05/14 00:02:51;;;;;;;2.50;1.95;;;23.20;53.10;;;;;;4995845;28;20449;-65
2022/05/14 00:05:19;;;;;;;2.10;1.80;;;23.10;53.00;;;;;;4995760;28;20395;-65
2022/05/14 00:07:46;;;;;;;2.20;2.00;;;23.20;53.10;;;;;;4995662;28;20752;-64
2022/05/14 00:10:14;;;;;;;2.22;2.00;;;23.20;53.20;;;;;;4995359;28;20398;-64
2022/05/14 00:15:25;;;;;;;2.67;2.00;;;23.20;53.30;;;;;;4995661;28;20476;-65
2022/05/14 00:17:54;;;;;;;2.47;2.28;;;23.20;53.30;;;;;;4995274;28;20746;-65
2022/05/14 00:20:23;;;;;;;2.67;2.00;;;23.10;53.30;;;;;;4995156;28;20882;-65
2022/05/14 00:22:51;;;;;;;2.30;2.00;;;23.10;53.30;;;;;;4995435;28;20409;-65
2022/05/14 00:25:17;;;;;;;2.53;2.10;;;23.10;53.30;;;;;;4995314;28;20399;-65
2022/05/14 00:27:44;;;;;;;2.28;2.08;;;23.10;53.30;;;;;;4995354;28;20477;-65
2022/05/14 00:30:13;;;;;;;2.38;1.90;;;23.10;53.10;;;;;;4994978;28;20406;-65
2022/05/14 00:32:42;;;;;;;2.42;2.22;;;23.10;53.10;;;;;;4995237;28;20417;-64
2022/05/14 00:35:10;;;;;;;2.20;2.00;;;23.10;53.20;;;;;;4995232;28;20378;-64
2022/05/14 00:37:37;;;;;;;2.78;1.98;;;23.10;53.20;;;;;;4995119;28;20412;-64
2022/05/14 00:40:08;;;;;;;2.33;1.90;;;23.10;53.10;;;;;;4994518;28;20398;-64
2022/05/14 00:42:34;;;;;;;2.30;1.90;;;23.10;53.10;;;;;;4995020;28;20395;-64
2022/05/14 00:45:00;;;;;;;2.72;1.80;;;23.10;53.00;;;;;;5009964;28;20409;-64
2022/05/14 00:47:34;;;;;;;2.33;2.00;;;23.10;53.20;;;;;;4994962;28;20395;-64
2022/05/14 00:50:00;;;;;;;2.58;2.00;;;23.10;53.10;;;;;;4994126;28;20379;-64
2022/05/14 00:52:27;;;;;;;2.85;2.17;;;23.10;53.10;;;;;;4994895;28;20501;-64
2022/05/14 00:55:00;;;;;;;3.13;1.90;;;23.00;53.10;;;;;;4994813;28;20398;-65
2022/05/14 00:57:29;;;;;;;2.30;1.88;;;23.10;53.10;;;;;;4994721;28;20732;-64
2022/05/14 00:59:58;;;;;;;2.78;2.10;;;23.10;53.10;;;;;;4994491;28;20414;-65
2022/05/14 01:02:24;;;;;;;2.55;1.92;;;23.10;53.10;;;;;;4994770;28;20478;-65
2022/05/14 01:04:50;;;;;;;2.30;2.00;;;23.10;53.20;;;;;;4994357;28;20392;-64
2022/05/14 01:07:19;;;;;;;2.17;1.80;;;23.00;53.20;;;;;;4994632;28;20822;-64
2022/05/14 01:09:49;;;;;;;2.22;2.00;;;23.00;53.20;;;;;;4994588;28;20399;-65
2022/05/14 01:12:18;;;;;;;2.40;2.20;;;23.10;53.20;;;;;;4993950;28;20417;-64
2022/05/14 01:14:44;;;;;;;2.80;2.10;;;23.00;53.00;;;;;;4994516;28;20430;-65
2022/05/14 01:17:10;;;;;;;2.20;1.83;;;23.00;53.00;;;;;;4994248;28;20395;-64
2022/05/14 01:19:37;;;;;;;2.55;2.20;;;23.00;53.00;;;;;;4994417;28;20460;-65
2022/05/14 01:22:03;;;;;;;2.53;2.28;;;23.00;53.00;;;;;;4993949;28;20394;-64
2022/05/14 01:27:33;;;;;;;3.30;2.20;;;23.00;53.00;;;;;;4994419;28;20900;-64
2022/05/14 01:30:00;;;;;;;2.70;2.10;;;23.00;53.00;;;;;;4993941;28;20477;-64
2022/05/14 01:32:25;;;;;;;3.38;2.22;;;23.00;53.10;;;;;;4994012;28;20414;-64
2022/05/14 01:34:53;;;;;;;2.43;2.13;;;23.00;53.00;;;;;;4994040;28;20402;-64
2022/05/14 01:37:20;;;;;;;2.30;2.10;;;23.00;53.00;;;;;;4994121;28;20386;-64
2022/05/14 01:39:46;;;;;;;2.92;2.10;;;23.00;53.00;;;;;;5008946;28;20411;-64
2022/05/14 01:42:12;;;;;;;3.13;2.28;;;23.00;52.80;;;;;;4993536;28;20386;-64
2022/05/14 01:44:38;;;;;;;2.30;2.10;;;23.00;53.00;;;;;;4994025;28;20398;-64
2022/05/14 01:47:04;;;;;;;2.20;2.00;;;23.00;53.00;;;;;;4993526;28;20394;-64
2022/05/14 01:49:30;;;;;;;2.58;2.20;;;23.00;53.10;;;;;;4993880;28;20541;-64
2022/05/14 01:51:56;;;;;;;2.67;2.10;;;23.00;53.10;;;;;;4993656;28;20473;-65
2022/05/14 01:54:22;;;;;;;3.23;2.13;;;23.00;53.10;;;;;;5008469;28;20418;-64
2022/05/14 01:56:48;;;;;;;2.40;2.03;;;23.00;53.00;;;;;;4993746;28;20897;-64
2022/05/14 01:59:15;;;;;;;3.20;2.20;;;22.90;53.00;;;;;;4993611;28;20901;-64
2022/05/14 02:01:41;;;;;;;2.38;2.10;;;23.00;53.00;;;;;;4993712;28;20387;-64
2022/05/14 02:04:11;;;;;;;2.92;2.20;;;23.00;52.80;;;;;;4993071;28;20402;-65
2022/05/14 02:06:38;;;;;;;3.05;2.15;;;22.90;52.90;;;;;;4993566;28;20397;-64
2022/05/14 02:09:06;;;;;;;2.33;2.13;;;22.90;52.80;;;;;;4993297;28;20394;-64
2022/05/14 02:11:32;;;;;;;2.53;2.30;;;22.90;52.80;;;;;;4993183;28;20439;-65
2022/05/14 02:13:58;;;;;;;3.35;2.40;;;22.90;52.90;;;;;;5007928;28;20437;-65
2022/05/14 02:16:24;;;;;;;2.22;2.00;;;22.90;52.80;;;;;;4992411;28;20407;-64
2022/05/14 02:18:50;;;;;;;2.70;2.30;;;22.90;52.90;;;;;;4993312;28;20829;-65
2022/05/14 02:21:20;;;;;;;2.50;2.30;;;22.90;52.90;;;;;;4993447;28;20395;-65
2022/05/14 02:23:47;;;;;;;2.70;2.35;;;22.90;52.80;;;;;;4993109;28;20398;-64
2022/05/14 02:26:13;;;;;;;2.63;2.28;;;22.90;52.80;;;;;;4992695;28;20398;-64
2022/05/14 02:28:40;;;;;;;2.97;2.30;;;22.90;52.80;;;;;;4993099;28;20398;-64
2022/05/14 02:31:06;;;;;;;2.60;2.35;;;22.90;52.90;;;;;;4992947;28;20387;-64
2022/05/14 02:33:32;;;;;;;2.90;2.22;;;22.90;53.00;;;;;;4992965;28;20422;-64
2022/05/14 02:35:59;;;;;;;3.00;2.30;;;22.90;52.90;;;;;;5007535;28;20436;-64
2022/05/14 02:38:28;;;;;;;2.50;2.22;;;22.90;53.10;;;;;;4992839;28;20995;-64
2022/05/14 02:40:53;;;;;;;2.30;2.10;;;22.90;52.90;;;;;;4992865;28;20893;-64
2022/05/14 02:43:20;;;;;;;2.40;2.13;;;22.90;52.90;;;;;;4992846;28;20399;-64
2022/05/14 02:45:46;;;;;;;2.47;2.20;;;22.90;52.80;;;;;;4992864;28;20945;-64
2022/05/14 02:48:12;;;;;;;2.22;2.00;;;22.90;52.80;;;;;;4992203;28;20461;-64
2022/05/14 02:50:39;;;;;;;2.55;2.17;;;22.90;53.30;;;;;;4992887;28;20422;-64
2022/05/14 02:53:06;;;;;;;3.20;2.20;;;22.90;52.80;;;;;;4992204;28;20406;-65
2022/05/14 02:55:32;;;;;;;2.65;2.20;;;22.90;52.70;;;;;;4992671;28;20410;-65
2022/05/14 02:57:58;;;;;;;2.60;2.20;;;22.80;52.70;;;;;;4992333;28;20394;-64
2022/05/14 03:00:25;;;;;;;2.55;2.00;;;22.90;52.80;;;;;;4992358;28;20397;-64
2022/05/14 03:02:51;;;;;;;2.83;2.20;;;22.90;52.70;;;;;;4992516;28;20390;-64
2022/05/14 03:05:19;;;;;;;2.22;2.03;;;22.90;52.60;;;;;;5007523;28;20410;-64
2022/05/14 03:07:45;;;;;;;2.30;2.10;;;22.80;52.70;;;;;;5007514;28;20402;-65
2022/05/14 03:10:12;;;;;;;2.65;2.13;;;22.80;52.70;;;;;;5007043;28;20771;-64
2022/05/14 03:12:39;;;;;;;2.70;1.90;;;22.80;52.80;;;;;;4992059;28;20477;-65
2022/05/14 03:15:07;;;;;;;3.25;2.20;;;22.80;52.70;;;;;;4992281;28;20398;-65
2022/05/14 03:17:36;;;;;;;2.63;2.17;;;22.80;52.80;;;;;;4992338;28;20398;-65
2022/05/14 03:20:07;;;;;;;2.40;2.10;;;22.80;52.80;;;;;;4991959;28;20515;-64
2022/05/14 03:22:38;;;;;;;2.78;2.30;;;22.80;52.90;;;;;;4992306;28;20732;-64
2022/05/14 03:25:06;;;;;;;2.42;2.00;;;22.80;52.80;;;;;;4992220;28;20382;-64
2022/05/14 03:27:32;;;;;;;2.38;2.17;;;22.80;52.70;;;;;;4992142;28;20400;-64
2022/05/14 03:29:58;;;;;;;2.72;2.10;;;22.80;52.70;;;;;;4991958;28;20398;-64
2022/05/14 03:32:26;;;;;;;2.67;2.17;;;22.80;52.70;;;;;;4991819;28;20798;-64
2022/05/14 03:34:54;;;;;;;2.70;2.17;;;22.80;52.60;;;;;;4991843;28;20398;-64
2022/05/14 03:37:23;;;;;;;2.40;2.20;;;22.80;52.70;;;;;;4992118;28;20444;-64
2022/05/14 03:39:49;;;;;;;2.95;2.10;;;22.80;52.70;;;;;;4992006;28;20402;-64
2022/05/14 03:42:15;;;;;;;2.80;2.10;;;22.80;52.70;;;;;;4991502;28;20390;-64
2022/05/14 03:44:41;;;;;;;2.47;1.90;;;22.80;52.60;;;;;;4992030;28;20402;-64
2022/05/14 03:47:07;;;;;;;3.23;2.20;;;22.80;52.70;;;;;;5007008;28;20402;-64
2022/05/14 03:49:33;;;;;;;2.40;2.10;;;22.80;52.70;;;;;;4992109;28;20403;-65
2022/05/14 03:51:59;;;;;;;2.40;2.20;;;22.80;52.60;;;;;;4991720;28;20394;-65
2022/05/14 03:54:25;;;;;;;2.67;2.10;;;22.80;52.70;;;;;;4991705;28;20921;-64
2022/05/14 03:56:50;;;;;;;2.70;2.30;;;22.80;52.60;;;;;;4991709;28;20433;-64
2022/05/14 03:59:17;;;;;;;2.20;2.00;;;22.80;52.80;;;;;;4991909;28;20456;-64
2022/05/14 04:01:42;;;;;;;2.47;2.20;;;22.70;52.70;;;;;;4991864;28;20813;-64
2022/05/14 04:04:08;;;;;;;2.60;2.30;;;22.80;52.80;;;;;;4990186;28;21387;-64
2022/05/14 04:06:34;;;;;;;2.65;2.17;;;22.80;52.80;;;;;;4991762;28;20387;-64
2022/05/14 04:09:01;;;;;;;2.63;2.30;;;22.70;52.80;;;;;;4991823;28;20445;-65
2022/05/14 04:11:27;;;;;;;3.10;2.30;;;22.80;52.70;;;;;;4991656;28;20799;-65
2022/05/14 04:13:53;;;;;;;2.40;2.20;;;22.80;52.80;;;;;;4991544;28;20460;-65
2022/05/14 04:16:18;;;;;;;2.38;2.10;;;22.80;52.80;;;;;;4991331;28;20418;-64
2022/05/14 04:18:44;;;;;;;2.65;2.30;;;22.80;52.90;;;;;;4991912;28;20391;-64
2022/05/14 04:21:10;;;;;;;2.80;2.10;;;22.70;52.70;;;;;;4991725;28;20409;-64
2022/05/14 04:23:36;;;;;;;3.25;2.35;;;22.70;52.80;;;;;;5006845;28;20837;-64
2022/05/14 04:26:02;;;;;;;2.78;2.15;;;22.70;52.80;;;;;;4991473;28;20387;-64
2022/05/14 04:28:28;;;;;;;2.60;2.28;;;22.80;52.80;;;;;;4991419;28;20807;-64
2022/05/14 04:30:54;;;;;;;2.50;2.30;;;22.80;53.00;;;;;;4991639;28;20383;-64
2022/05/14 04:33:21;;;;;;;2.55;2.10;;;22.80;52.90;;;;;;5006447;28;20418;-64
2022/05/14 04:35:47;;;;;;;2.80;2.50;;;22.80;52.90;;;;;;4991598;28;20395;-64
2022/05/14 04:38:13;;;;;;;2.65;2.08;;;22.70;52.80;;;;;;4991063;28;20398;-64
2022/05/14 04:40:39;;;;;;;2.33;2.13;;;22.70;52.80;;;;;;4994606;28;20483;-64
2022/05/14 04:43:07;;;;;;;2.65;2.30;;;22.70;52.90;;;;;;4995064;28;20862;-64
2022/05/14 04:45:32;;;;;;;2.30;2.10;;;22.70;53.00;;;;;;4995096;28;20875;-64
2022/05/14 04:47:58;;;;;;;2.93;2.20;;;22.70;52.80;;;;;;4994732;28;20402;-64
2022/05/14 04:50:24;;;;;;;2.58;2.30;;;22.80;52.90;;;;;;4994565;28;20390;-64
2022/05/14 04:52:49;;;;;;;2.50;2.30;;;22.80;53.00;;;;;;4994880;28;20421;-64
2022/05/14 04:55:16;;;;;;;2.78;2.13;;;22.70;53.10;;;;;;4994710;28;20518;-64
2022/05/14 04:57:43;;;;;;;3.10;2.55;;;22.80;53.00;;;;;;4994950;28;20470;-64
2022/05/14 05:00:13;;;;;;;2.70;2.38;;;22.70;53.00;;;;;;4994504;28;20413;-64
2022/05/14 05:05:24;;;;;;;2.60;2.22;;;22.70;53.00;;;;;;4994824;28;20739;-64
2022/05/14 05:07:49;;;;;;;2.50;2.30;;;22.70;53.00;;;;;;4994585;28;20485;-64
2022/05/14 05:10:15;;;;;;;2.97;2.30;;;22.70;53.10;;;;;;4994124;28;20477;-64
2022/05/14 05:12:40;;;;;;;3.15;2.17;;;22.70;53.10;;;;;;4994401;28;20419;-65
2022/05/14 05:15:07;;;;;;;2.97;2.60;;;22.80;54.00;;;;;;4994274;28;20406;-65
2022/05/14 05:17:33;;;;;;;7.43;4.78;;;22.80;54.50;;;;;;4994533;28;20894;-66
2022/05/14 05:19:58;;;;;;;6.53;5.20;;;22.80;56.00;;;;;;4994348;28;20409;-65
2022/05/14 05:22:24;;;;;;;4.57;3.47;;;22.80;57.10;;;;;;4993816;28;20386;-65
2022/05/14 05:24:49;;;;;;;5.70;3.33;;;22.80;57.10;;;;;;4994249;28;20399;-65
2022/05/14 05:27:15;;;;;;;6.30;3.27;;;22.90;57.30;;;;;;4994265;28;20399;-65
2022/05/14 05:29:41;;;;;;;4.60;3.25;;;22.90;57.40;;;;;;4994275;28;20422;-65
2022/05/14 05:32:07;;;;;;;6.23;3.00;;;22.90;57.20;;;;;;4993766;28;20481;-65
2022/05/14 05:34:32;;;;;;;4.82;2.92;;;22.90;57.00;;;;;;5008823;28;20426;-65
2022/05/14 05:36:58;;;;;;;5.13;3.13;;;23.00;57.00;;;;;;4994063;28;20387;-66
2022/05/14 05:39:24;;;;;;;6.03;3.10;;;23.00;56.80;;;;;;4994090;28;20487;-66
2022/05/14 05:41:50;;;;;;;4.40;2.90;;;23.00;56.90;;;;;;4993843;28;20930;-66
2022/05/14 05:44:15;;;;;;;4.40;2.90;;;22.90;57.00;;;;;;4993521;28;20393;-66
2022/05/14 05:46:41;;;;;;;5.67;2.73;;;23.00;56.90;;;;;;4993955;28;20402;-66
2022/05/14 05:49:07;;;;;;;4.97;2.60;;;23.00;56.90;;;;;;5008724;28;20401;-66
2022/05/14 05:51:33;;;;;;;4.35;3.00;;;23.00;56.40;;;;;;4992592;28;20414;-65
2022/05/14 05:56:46;;;;;;;5.50;2.83;;;23.00;56.70;;;;;;4993609;28;20925;-65
2022/05/14 05:59:14;;;;;;;3.72;2.60;;;23.00;56.50;;;;;;4993666;28;20510;-65
2022/05/14 06:01:40;;;;;;;6.47;2.58;;;22.90;56.00;;;;;;4993644;28;20390;-66
2022/05/14 06:04:06;;;;;;;6.05;2.50;;;22.90;56.00;;;;;;4993298;28;20416;-66
2022/05/14 06:06:31;;;;;;;5.65;2.80;;;22.90;56.20;;;;;;4993243;28;20858;-66
2022/05/14 06:08:58;;;;;;;5.50;2.60;;;23.00;56.70;;;;;;4993452;28;20890;-66
2022/05/14 06:11:25;;;;;;;7.97;2.90;;;23.00;56.70;;;;;;4993256;28;20395;-66
2022/05/14 06:13:51;;;;;;;6.18;2.50;;;23.00;57.10;;;;;;4993408;28;20419;-66
2022/05/14 06:16:17;;;;;;;5.43;2.80;;;23.00;56.50;;;;;;4992840;28;20397;-65
2022/05/14 06:18:43;;;;;;;4.43;2.80;;;23.00;56.60;;;;;;4993402;28;20405;-65
2022/05/14 06:21:10;;;;;;;4.45;3.10;;;23.10;57.10;;;;;;4993071;28;20484;-65
2022/05/14 06:23:36;;;;;;;5.95;2.55;;;23.10;56.70;;;;;;4993494;28;20395;-65
2022/05/14 06:26:02;;;;;;;13.07;3.10;;;23.10;56.70;;;;;;4993113;28;20532;-66
2022/05/14 06:28:27;;;;;;;16.07;3.37;;;23.20;57.00;;;;;;4992712;28;20447;-65
2022/05/14 06:30:53;;;;;;;9.70;2.85;;;23.20;57.00;;;;;;4992999;28;20398;-65
2022/05/14 06:33:19;;;;;;;8.00;2.73;;;23.20;57.00;;;;;;4992977;28;20481;-65
2022/05/14 06:35:46;;;;;;;8.97;2.77;;;23.30;57.10;;;;;;4992933;28;20758;-65
2022/05/14 06:38:13;;;;;;;8.55;3.10;;;23.30;56.80;;;;;;5007681;28;20755;-65
2022/05/14 06:40:40;;;;;;;6.10;3.10;;;23.30;56.80;;;;;;4992673;28;20390;-64
2022/05/14 06:43:06;;;;;;;8.35;2.72;;;23.30;56.50;;;;;;4992786;28;20399;-64
2022/05/14 06:45:32;;;;;;;21.05;4.68;;;23.30;56.60;;;;;;4994103;28;20393;-65
2022/05/14 06:47:58;;;;;;;12.45;4.78;;;23.30;56.10;;;;;;5007832;28;20416;-65
2022/05/14 06:50:26;;;;;;;11.63;4.35;;;23.20;54.60;;;;;;4994238;28;20394;-65
2022/05/14 06:52:57;;;;;;;10.32;4.40;;;23.20;55.20;;;;;;4991054;28;20468;-65
2022/05/14 06:55:26;;;;;;;8.25;3.80;;;23.20;54.50;;;;;;4987229;28;20400;-64
2022/05/14 06:57:52;;;;;;;8.50;3.90;;;23.20;54.60;;;;;;4988032;28;20745;-65
2022/05/14 07:00:19;;;;;;;6.72;3.70;;;23.20;54.50;;;;;;4990600;28;20751;-65
2022/05/14 07:02:46;;;;;;;7.70;3.80;;;23.20;53.90;;;;;;4992386;28;20386;-65
2022/05/14 07:07:57;;;;;;;6.07;3.58;;;23.20;53.90;;;;;;4992720;28;20397;-65
2022/05/14 07:10:24;;;;;;;4.53;3.47;;;23.20;54.10;;;;;;4991847;28;20386;-65
2022/05/14 07:12:49;;;;;;;6.25;3.70;;;23.20;54.20;;;;;;4992206;28;20423;-65
2022/05/14 07:15:16;;;;;;;4.80;3.20;;;23.20;54.90;;;;;;4992365;28;20478;-65
2022/05/14 07:17:41;;;;;;;4.50;3.10;;;23.30;55.00;;;;;;4992372;28;20386;-65
2022/05/14 07:20:08;;;;;;;6.13;3.30;;;23.30;54.90;;;;;;4992227;28;20421;-65
2022/05/14 07:22:34;;;;;;;4.82;3.40;;;23.30;54.80;;;;;;4991539;28;20771;-65
2022/05/14 07:25:00;;;;;;;4.87;3.40;;;23.30;54.70;;;;;;4992218;28;20407;-65
2022/05/14 07:27:26;;;;;;;6.27;3.17;;;23.30;54.60;;;;;;4992305;28;20395;-65
2022/05/14 07:29:51;;;;;;;4.97;3.28;;;23.30;54.50;;;;;;4992167;28;20401;-65
2022/05/14 07:32:19;;;;;;;4.70;3.07;;;23.30;54.10;;;;;;4991816;28;20469;-65
2022/05/14 07:34:46;;;;;;;4.22;3.13;;;23.30;54.10;;;;;;4992110;28;20497;-65
2022/05/14 07:37:16;;;;;;;3.97;3.10;;;23.20;53.30;;;;;;4992048;28;20387;-65
2022/05/14 07:40:04;;;;;;;6.67;3.30;;;23.30;53.90;;;;;;4992144;28;20391;-64
2022/05/14 07:42:39;;;;;;;4.93;3.13;;;23.20;53.30;;;;;;4991632;28;20404;-65
2022/05/14 07:45:08;;;;;;;5.07;3.08;;;23.20;53.50;;;;;;4992040;28;20411;-65
2022/05/14 07:47:35;;;;;;;4.82;3.47;;;23.20;53.30;;;;;;4981983;28;20888;-65
2022/05/14 07:50:02;;;;;;;8.00;4.38;;;23.20;53.40;;;;;;4972424;28;20400;-65
2022/05/14 07:52:29;;;;;;;6.78;3.95;;;23.20;53.50;;;;;;4987007;28;20392;-65
2022/05/14 07:54:54;;;;;;;9.13;4.45;;;23.20;53.60;;;;;;4972407;28;20392;-65
2022/05/14 07:57:20;;;;;;;7.87;4.00;;;23.20;53.40;;;;;;4972538;28;20399;-65
2022/05/14 07:59:46;;;;;;;7.53;3.95;;;23.20;53.30;;;;;;4977627;28;20946;-65
2022/05/14 08:02:31;;;;;;;6.75;3.95;;;23.20;53.40;;;;;;5006797;28;20417;-65
2022/05/14 08:05:04;;;;;;;6.32;4.15;;;23.30;53.20;;;;;;4985459;28;20931;-64
2022/05/14 08:07:31;;;;;;;5.93;4.00;;;23.20;53.30;;;;;;4973421;28;20434;-65
2022/05/14 08:09:58;;;;;;;7.35;3.53;;;23.30;53.30;;;;;;4972336;28;20408;-64
2022/05/14 08:12:24;;;;;;;8.50;3.63;;;23.30;53.00;;;;;;4971678;28;20412;-65
2022/05/14 08:14:49;;;;;;;6.63;3.53;;;23.30;53.10;;;;;;4981090;28;20489;-64
2022/05/14 08:17:15;;;;;;;6.68;3.50;;;23.30;52.80;;;;;;4976151;28;20388;-64
2022/05/14 08:19:41;;;;;;;6.47;3.57;;;23.30;53.50;;;;;;4976032;28;20396;-64
2022/05/14 08:24:52;;;;;;;5.78;3.53;;;23.30;52.90;;;;;;4976200;28;20435;-64
2022/05/14 08:27:18;;;;;;;5.17;3.57;;;23.30;52.90;;;;;;4981703;28;20400;-65
2022/05/14 08:29:48;;;;;;;4.82;3.40;;;23.30;52.60;;;;;;4984210;28;20948;-65
2022/05/14 08:32:18;;;;;;;5.55;3.40;;;23.30;52.70;;;;;;4985052;28;20481;-65
2022/05/14 08:34:44;;;;;;;3.70;3.20;;;23.30;52.60;;;;;;4980392;28;20419;-65
2022/05/14 08:37:11;;;;;;;5.00;3.40;;;23.40;53.00;;;;;;4975714;28;20503;-65
2022/05/14 08:39:37;;;;;;;4.03;2.90;;;23.40;52.70;;;;;;4975482;28;20407;-65
2022/05/14 08:42:05;;;;;;;3.90;3.08;;;23.40;52.70;;;;;;4975595;28;20388;-64
2022/05/14 08:44:33;;;;;;;4.28;3.25;;;23.40;52.60;;;;;;4977499;28;20921;-64
2022/05/14 08:47:06;;;;;;;4.22;3.10;;;23.40;52.60;;;;;;4984983;28;20811;-65
2022/05/14 08:49:42;;;;;;;3.22;2.90;;;23.40;52.50;;;;;;4975410;28;20387;-65
2022/05/14 08:52:19;;;;;;;4.10;2.80;;;23.40;52.50;;;;;;4975459;28;20431;-64
2022/05/14 08:54:44;;;;;;;3.92;3.10;;;23.40;52.60;;;;;;4975022;28;20491;-64
2022/05/14 08:57:20;;;;;;;4.03;3.07;;;23.40;52.60;;;;;;4989078;28;20398;-64
2022/05/14 08:59:56;;;;;;;3.85;3.15;;;23.40;52.70;;;;;;4995168;28;20399;-64
2022/05/14 09:02:50;;;;;;;4.97;3.17;;;23.40;52.60;;;;;;4994303;28;20390;-64
2022/05/14 09:05:29;;;;;;;4.07;3.27;;;23.40;52.50;;;;;;5007581;28;20961;-65
2022/05/14 09:07:54;;;;;;;3.20;2.90;;;23.40;52.60;;;;;;4994342;28;20486;-64
2022/05/14 09:10:22;;;;;;;3.70;2.97;;;23.40;52.70;;;;;;4993994;28;20410;-64
2022/05/14 09:12:55;;;;;;;3.83;3.15;;;23.40;52.60;;;;;;4993836;28;20424;-64
2022/05/14 09:15:22;;;;;;;4.07;3.20;;;23.40;52.60;;;;;;4994281;28;20406;-64
2022/05/14 09:18:01;;;;;;;4.13;3.23;;;23.40;52.60;;;;;;4994160;28;20398;-64
2022/05/14 09:20:27;;;;;;;3.17;2.80;;;23.40;52.50;;;;;;4993578;28;20398;-64
2022/05/14 09:22:55;;;;;;;4.00;3.20;;;23.40;52.50;;;;;;4994004;28;20398;-64
2022/05/14 09:25:34;;;;;;;3.88;3.30;;;23.50;52.40;;;;;;4993939;28;20391;-64
2022/05/14 09:28:03;;;;;;;3.70;2.90;;;23.50;52.30;;;;;;4993875;28;20474;-65
2022/05/14 09:30:38;;;;;;;3.13;2.80;;;23.50;52.20;;;;;;4993570;28;20395;-64
2022/05/14 09:33:06;;;;;;;3.13;2.80;;;23.50;52.20;;;;;;4993851;28;20436;-64
2022/05/14 09:35:34;;;;;;;3.72;2.90;;;23.50;52.20;;;;;;4993981;28;20399;-64
2022/05/14 09:38:12;;;;;;;3.95;3.00;;;23.50;52.00;;;;;;4993901;28;20399;-64
2022/05/14 09:40:38;;;;;;;3.28;2.85;;;23.50;52.00;;;;;;4993179;28;20402;-64
2022/05/14 09:43:11;;;;;;;3.95;2.85;;;23.50;52.00;;;;;;4992871;28;20492;-64
2022/05/14 09:45:41;;;;;;;3.53;3.00;;;23.50;51.90;;;;;;4993755;28;20406;-64
2022/05/14 09:48:14;;;;;;;3.47;2.90;;;23.40;51.90;;;;;;4993662;28;20521;-64
2022/05/14 09:50:42;;;;;;;3.45;3.00;;;23.50;51.90;;;;;;4993285;28;20395;-64
2022/05/14 09:53:08;;;;;;;4.63;2.90;;;23.50;51.80;;;;;;4993338;28;20430;-64
2022/05/14 09:55:58;;;;;;;3.85;2.85;;;23.50;51.70;;;;;;4984396;28;20398;-65
2022/05/14 09:58:56;;;;;;;4.03;3.03;;;23.50;51.70;;;;;;4988958;28;20768;-65
2022/05/14 10:01:32;;;;;;;3.28;2.72;;;23.50;51.90;;;;;;4974260;28;20396;-65
2022/05/14 10:04:05;;;;;;;7.32;3.15;;;23.50;51.90;;;;;;4973934;28;20396;-65
2022/05/14 10:06:56;;;;;;;6.07;3.10;;;23.50;51.70;;;;;;4973112;28;20400;-64
2022/05/14 10:09:40;;;;;;;7.55;3.33;;;23.50;51.40;;;;;;4973118;28;20376;-64
2022/05/14 10:12:28;;;;;;;6.30;3.23;;;23.50;51.50;;;;;;4973529;28;20427;-65
2022/05/14 10:15:10;;;;;;;9.70;5.43;;;23.50;51.90;;;;;;4973592;28;20892;-64
2022/05/14 10:17:51;;;;;;;9.50;4.00;;;23.50;53.30;;;;;;4973613;28;20396;-64
2022/05/14 10:20:25;;;;;;;7.90;3.80;;;23.60;53.10;;;;;;4973596;28;20951;-64
2022/05/14 10:29:18;;;;;;;6.63;3.50;;;23.60;51.90;;;;;;4973345;28;20403;-64
2022/05/14 10:32:04;;;;;;;5.93;3.00;;;23.60;52.10;;;;;;4973435;28;20768;-64
2022/05/14 10:34:54;;;;;;;5.45;3.17;;;23.60;51.70;;;;;;4972887;28;20436;-64
2022/05/14 10:37:29;;;;;;;6.50;2.90;;;23.60;51.80;;;;;;4987810;28;20474;-64
2022/05/14 10:40:14;;;;;;;5.60;3.10;;;23.60;51.70;;;;;;4973288;28;20395;-64
2022/05/14 10:42:43;;;;;;;5.70;2.97;;;23.60;52.00;;;;;;4972743;28;20416;-64
2022/05/14 10:45:24;;;;;;;5.40;3.10;;;23.70;51.80;;;;;;4973196;28;20406;-64
2022/05/14 10:48:15;;;;;;;6.13;3.00;;;23.70;51.80;;;;;;4973099;28;20387;-64
2022/05/14 10:50:40;;;;;;;4.95;2.78;;;23.70;51.80;;;;;;4971404;28;21091;-65
2022/05/14 10:53:08;;;;;;;5.45;2.83;;;23.70;51.80;;;;;;4972928;28;20905;-64
2022/05/14 10:56:01;;;;;;;4.87;2.67;;;23.70;51.90;;;;;;4973128;28;20400;-64
2022/05/14 10:58:36;;;;;;;5.90;2.83;;;23.70;52.00;;;;;;4972768;28;20404;-64
2022/05/14 11:01:29;;;;;;;4.35;2.67;;;23.70;52.10;;;;;;4972781;28;20399;-65
2022/05/14 11:04:23;;;;;;;4.07;2.53;;;23.70;51.90;;;;;;4972905;28;20403;-64
2022/05/14 11:07:02;;;;;;;4.18;2.72;;;23.70;51.70;;;;;;4955044;28;20404;-64
2022/05/14 11:09:31;;;;;;;4.57;2.72;;;23.70;51.80;;;;;;4972707;28;20403;-64
2022/05/14 11:12:00;;;;;;;4.00;2.80;;;23.70;51.60;;;;;;4972592;28;20412;-64
2022/05/14 11:14:51;;;;;;;3.50;2.50;;;23.70;51.60;;;;;;4987394;28;20428;-64
2022/05/14 11:17:29;;;;;;;4.38;2.60;;;23.80;51.80;;;;;;4972674;28;20403;-64
2022/05/14 11:20:03;;;;;;;6.20;2.70;;;23.80;51.60;;;;;;4972582;28;20396;-64
2022/05/14 11:22:50;;;;;;;4.63;2.65;;;23.80;51.60;;;;;;4972429;28;20392;-64
2022/05/14 11:25:25;;;;;;;3.20;2.70;;;23.80;51.40;;;;;;4987417;28;20400;-64
2022/05/14 11:28:02;;;;;;;5.35;2.60;;;23.80;51.30;;;;;;4987363;28;20427;-64
2022/05/14 11:30:40;;;;;;;5.45;2.80;;;23.80;51.20;;;;;;4972354;28;20896;-64
2022/05/14 11:33:20;;;;;;;7.32;3.10;;;23.80;51.00;;;;;;4972401;28;20474;-64
2022/05/14 11:35:47;;;;;;;7.93;3.15;;;23.90;50.90;;;;;;4972370;28;20435;-64
2022/05/14 11:38:35;;;;;;;6.27;2.90;;;23.80;50.70;;;;;;4972451;28;20755;-64
2022/05/14 11:41:02;;;;;;;5.80;2.95;;;23.80;50.90;;;;;;4972204;28;20446;-65
2022/05/14 11:43:34;;;;;;;8.68;2.85;;;23.80;50.60;;;;;;4972283;28;20911;-64
2022/05/14 11:46:16;;;;;;;5.18;2.72;;;23.80;50.70;;;;;;4972158;28;20409;-64
2022/05/14 11:48:53;;;;;;;5.18;2.67;;;23.80;50.70;;;;;;4972030;28;20410;-64
2022/05/14 11:51:33;;;;;;;4.32;2.70;;;23.80;50.70;;;;;;4976393;28;20495;-64
2022/05/14 11:54:09;;;;;;;5.95;2.70;;;23.90;50.70;;;;;;4976209;28;20776;-64
2022/05/14 11:56:39;;;;;;;6.00;2.95;;;23.90;50.70;;;;;;4975940;28;20479;-64
2022/05/14 11:59:12;;;;;;;4.90;2.80;;;23.90;50.60;;;;;;4976256;28;20910;-64
2022/05/14 12:01:42;;;;;;;5.20;2.90;;;23.90;50.90;;;;;;4978782;28;20919;-64
2022/05/14 12:04:16;;;;;;;5.57;2.60;;;23.90;50.50;;;;;;4976233;28;20491;-64
2022/05/14 12:07:01;;;;;;;4.40;2.60;;;24.00;50.50;;;;;;4975687;28;20951;-64
2022/05/14 12:09:50;;;;;;;6.60;2.80;;;24.00;50.60;;;;;;4975829;28;20883;-65
2022/05/14 12:12:28;;;;;;;4.45;2.67;;;23.90;50.30;;;;;;4975812;28;20443;-64
2022/05/14 12:14:54;;;;;;;4.28;2.45;;;24.00;50.50;;;;;;4974407;28;20424;-64
2022/05/14 12:17:21;;;;;;;3.85;2.60;;;24.00;50.40;;;;;;4976023;28;20443;-64
2022/05/14 12:19:54;;;;;;;2.95;2.50;;;24.00;50.30;;;;;;4975936;28;20388;-64
2022/05/14 12:22:23;;;;;;;4.57;2.70;;;24.00;50.30;;;;;;4976018;28;20380;-64
2022/05/14 12:25:02;;;;;;;4.63;2.63;;;24.00;50.20;;;;;;4990300;28;20431;-64
2022/05/14 12:27:30;;;;;;;3.97;2.85;;;24.00;50.20;;;;;;4975936;28;20402;-64
2022/05/14 12:30:04;;;;;;;3.88;2.55;;;24.00;50.20;;;;;;4975717;28;20431;-64
2022/05/14 12:35:23;;;;;;;4.22;2.60;;;24.00;50.20;;;;;;4975787;28;20462;-64
2022/05/14 12:37:54;;;;;;;4.40;2.50;;;24.00;50.10;;;;;;4990615;28;20388;-64
2022/05/14 12:40:27;;;;;;;5.25;2.60;;;24.00;50.10;;;;;;4975708;28;20451;-64
2022/05/14 12:42:53;;;;;;;3.45;2.70;;;24.00;50.10;;;;;;4975367;28;20399;-64
2022/05/14 12:45:20;;;;;;;3.17;2.50;;;24.00;50.10;;;;;;4975676;28;20410;-64
2022/05/14 12:47:46;;;;;;;3.92;2.75;;;24.00;50.10;;;;;;4975393;28;20428;-64
2022/05/14 12:50:21;;;;;;;3.95;2.70;;;24.00;50.60;;;;;;4975586;28;20405;-64
2022/05/14 12:52:57;;;;;;;4.05;2.97;;;24.00;50.00;;;;;;4974908;28;20438;-64
2022/05/14 12:55:24;;;;;;;3.15;2.55;;;24.00;50.00;;;;;;4975534;28;20447;-64
2022/05/14 12:57:51;;;;;;;3.55;2.42;;;24.00;50.00;;;;;;4975359;28;20388;-64
2022/05/14 13:00:20;;;;;;;2.77;2.40;;;24.00;50.00;;;;;;4974870;28;20804;-64
2022/05/14 13:02:48;;;;;;;3.58;2.50;;;24.00;50.00;;;;;;4974630;28;20389;-64
2022/05/14 13:05:21;;;;;;;5.25;2.63;;;24.10;50.00;;;;;;4975328;28;20396;-64
2022/05/14 13:07:57;;;;;;;3.80;2.50;;;24.00;49.90;;;;;;4974992;28;20455;-64
2022/05/14 13:10:28;;;;;;;3.63;2.60;;;24.00;49.80;;;;;;5000199;28;20397;-64
2022/05/14 13:13:05;;;;;;;3.83;2.70;;;24.00;49.80;;;;;;5013156;28;20424;-64
2022/05/14 13:15:38;;;;;;;11.52;3.00;;;24.00;49.90;;;;;;5014352;28;20891;-64
2022/05/14 13:18:22;;;;;;;12.25;2.80;;;24.10;49.90;;;;;;5014116;28;20853;-64
2022/05/14 13:21:00;;;;;;;10.30;2.85;;;24.00;49.80;;;;;;5013066;28;20483;-64
2022/05/14 13:23:27;;;;;;;5.80;2.60;;;24.00;49.80;;;;;;5028967;28;20392;-64